Time;durP1;ratioP1;P1;durP2;ratioP2;P2;SDS_P1;SDS_P2;PMS_P1;PMS_P2;Temp;Humidity;BMP_temperature;BMP_pressure;BME280_temperature;BME280_humidity;BME280_pressure;Samples;Min_cycle;Max_cycle;Signal;HPM_P1;HPM_P2
2021/08/25 00:02:00;;;;;;;0.90;0.30;;;14.60;72.20;;;;;;5009737;28;20505;-83
2021/08/25 00:04:26;;;;;;;0.77;0.50;;;14.60;73.00;;;;;;4994190;28;20372;-83
2021/08/25 00:06:51;;;;;;;1.60;0.40;;;14.60;72.40;;;;;;4996232;28;20045;-83
2021/08/25 00:09:17;;;;;;;0.40;0.40;;;14.50;72.40;;;;;;4992765;28;20066;-82
2021/08/25 00:11:43;;;;;;;0.68;0.40;;;14.50;72.60;;;;;;4995007;28;20522;-83
2021/08/25 00:14:09;;;;;;;0.40;0.40;;;14.50;72.60;;;;;;4995405;28;20059;-83
2021/08/25 00:16:35;;;;;;;0.52;0.50;;;14.50;72.60;;;;;;4992944;28;20030;-83
2021/08/25 00:19:00;;;;;;;0.38;0.38;;;14.50;72.60;;;;;;4992304;28;20045;-83
2021/08/25 00:21:26;;;;;;;0.75;0.45;;;14.40;72.60;;;;;;5009790;28;20030;-83
2021/08/25 00:23:52;;;;;;;0.85;0.40;;;14.50;72.60;;;;;;4993479;28;20517;-82
2021/08/25 00:26:18;;;;;;;0.30;0.30;;;14.40;72.60;;;;;;4995870;28;20130;-83
2021/08/25 00:28:43;;;;;;;0.50;0.40;;;14.40;72.70;;;;;;4995910;28;20035;-82
2021/08/25 00:31:10;;;;;;;0.77;0.52;;;14.40;72.80;;;;;;4993169;28;20390;-82
2021/08/25 00:33:36;;;;;;;0.38;0.30;;;14.40;72.80;;;;;;5009375;28;20181;-83
2021/08/25 00:36:02;;;;;;;0.47;0.32;;;14.40;73.50;;;;;;4991901;28;20086;-83
2021/08/25 00:38:28;;;;;;;0.95;0.40;;;14.30;72.80;;;;;;4993664;28;20129;-82
2021/08/25 00:40:53;;;;;;;0.57;0.30;;;14.40;73.00;;;;;;4992446;28;20035;-83
2021/08/25 00:43:19;;;;;;;0.50;0.40;;;14.30;72.90;;;;;;4995050;28;20113;-83
2021/08/25 00:45:45;;;;;;;0.60;0.40;;;14.30;73.00;;;;;;4993235;28;20479;-83
2021/08/25 00:48:15;;;;;;;0.55;0.40;;;14.30;73.10;;;;;;4992867;28;20134;-83
2021/08/25 00:50:42;;;;;;;0.30;0.30;;;14.30;73.20;;;;;;4992369;28;20042;-83
2021/08/25 00:53:08;;;;;;;0.47;0.30;;;14.30;73.20;;;;;;4994757;28;20074;-83
2021/08/25 00:55:41;;;;;;;0.50;0.50;;;14.20;73.30;;;;;;4991631;28;20035;-83
2021/08/25 00:58:08;;;;;;;0.50;0.50;;;14.20;73.50;;;;;;5008246;28;20101;-83
2021/08/25 01:00:41;;;;;;;0.55;0.50;;;14.30;73.60;;;;;;4993339;28;20022;-83
2021/08/25 01:03:15;;;;;;;0.40;0.40;;;14.20;73.60;;;;;;4993750;28;20042;-82
2021/08/25 01:05:43;;;;;;;0.63;0.43;;;14.20;73.70;;;;;;4992646;28;20070;-82
2021/08/25 01:08:12;;;;;;;0.52;0.50;;;14.10;73.70;;;;;;4992055;28;20483;-83
2021/08/25 01:10:38;;;;;;;0.40;0.38;;;14.10;73.70;;;;;;4993533;28;20505;-83
2021/08/25 01:13:07;;;;;;;0.80;0.63;;;14.10;73.80;;;;;;4993388;28;20130;-83
2021/08/25 01:15:35;;;;;;;0.40;0.30;;;14.00;73.90;;;;;;4993279;28;20038;-83
2021/08/25 01:18:03;;;;;;;0.82;0.50;;;13.90;73.90;;;;;;4993416;28;20026;-84
2021/08/25 01:20:29;;;;;;;0.80;0.60;;;14.00;74.10;;;;;;4993847;28;20070;-82
2021/08/25 01:22:57;;;;;;;0.70;0.60;;;13.90;74.10;;;;;;4993195;28;20129;-83
2021/08/25 01:25:26;;;;;;;1.05;0.77;;;13.90;74.20;;;;;;4993898;28;20125;-83
2021/08/25 01:27:56;;;;;;;0.90;0.55;;;13.90;74.30;;;;;;4992925;28;20410;-83
2021/08/25 01:30:25;;;;;;;1.00;0.60;;;13.90;74.30;;;;;;4992942;28;20467;-83
2021/08/25 01:32:51;;;;;;;1.10;0.70;;;13.80;74.40;;;;;;4992779;28;20509;-82
2021/08/25 01:35:16;;;;;;;1.15;0.60;;;13.80;74.50;;;;;;4977577;28;20034;-83
2021/08/25 01:37:43;;;;;;;0.95;0.55;;;13.80;74.60;;;;;;4992825;28;20118;-83
2021/08/25 01:40:09;;;;;;;0.80;0.40;;;13.80;74.60;;;;;;4993060;28;20038;-82
2021/08/25 01:42:35;;;;;;;0.68;0.50;;;13.80;74.70;;;;;;5008979;28;20059;-82
2021/08/25 01:45:00;;;;;;;0.70;0.50;;;13.70;74.70;;;;;;5007895;28;20161;-83
2021/08/25 01:47:26;;;;;;;0.95;0.63;;;13.70;74.90;;;;;;4994490;28;20034;-83
2021/08/25 01:49:53;;;;;;;0.93;0.70;;;13.70;75.10;;;;;;4992403;28;20118;-82
2021/08/25 01:52:20;;;;;;;0.95;0.50;;;13.60;75.00;;;;;;4991186;28;20053;-83
2021/08/25 01:54:47;;;;;;;0.45;0.40;;;13.60;75.00;;;;;;4990929;28;20073;-83
2021/08/25 01:57:13;;;;;;;0.80;0.50;;;13.50;75.00;;;;;;4992500;28;20061;-83
2021/08/25 01:59:39;;;;;;;0.52;0.40;;;13.60;75.10;;;;;;5008221;28;20479;-82
2021/08/25 02:02:05;;;;;;;0.50;0.50;;;13.50;75.20;;;;;;4991902;28;20053;-82
2021/08/25 02:04:32;;;;;;;1.27;0.65;;;13.50;75.30;;;;;;5007368;28;20042;-83
2021/08/25 02:06:58;;;;;;;1.48;0.70;;;13.40;75.30;;;;;;4992191;28;20097;-82
2021/08/25 02:09:23;;;;;;;0.45;0.40;;;13.50;75.50;;;;;;4991459;28;20042;-83
2021/08/25 02:11:50;;;;;;;0.70;0.55;;;13.40;75.50;;;;;;4990702;28;20038;-82
2021/08/25 02:14:16;;;;;;;0.47;0.47;;;13.40;75.60;;;;;;4992286;28;20031;-82
2021/08/25 02:16:42;;;;;;;1.10;0.65;;;13.50;75.70;;;;;;4992020;28;20037;-82
2021/08/25 02:19:07;;;;;;;0.55;0.52;;;13.30;75.70;;;;;;4991056;28;20026;-83
2021/08/25 02:21:33;;;;;;;0.40;0.40;;;13.40;75.90;;;;;;4990487;28;20026;-82
2021/08/25 02:23:59;;;;;;;1.13;0.80;;;13.30;75.90;;;;;;4993836;28;20438;-82
2021/08/25 02:26:25;;;;;;;0.82;0.65;;;13.30;75.90;;;;;;4993730;28;20437;-82
2021/08/25 02:28:53;;;;;;;0.65;0.65;;;13.30;76.00;;;;;;4990451;28;20045;-82
2021/08/25 02:31:20;;;;;;;1.48;0.60;;;13.30;76.10;;;;;;4992388;28;20046;-83
2021/08/25 02:33:46;;;;;;;1.13;0.70;;;13.30;76.20;;;;;;4992205;28;20042;-83
2021/08/25 02:36:13;;;;;;;0.85;0.50;;;13.20;76.20;;;;;;4992182;28;20038;-83
2021/08/25 02:38:40;;;;;;;0.43;0.40;;;13.30;76.30;;;;;;4993363;28;20035;-83
2021/08/25 02:41:09;;;;;;;0.38;0.38;;;13.20;76.30;;;;;;4990367;28;20050;-83
2021/08/25 02:43:35;;;;;;;0.88;0.68;;;13.20;76.40;;;;;;4975970;28;20034;-83
2021/08/25 02:46:02;;;;;;;0.68;0.40;;;13.10;76.30;;;;;;4991604;28;20500;-82
2021/08/25 02:48:28;;;;;;;1.10;0.68;;;13.10;76.50;;;;;;4991120;28;20035;-82
2021/08/25 02:50:53;;;;;;;0.70;0.50;;;13.10;76.50;;;;;;4974304;28;20371;-83
2021/08/25 02:53:19;;;;;;;0.50;0.50;;;13.00;76.50;;;;;;4993112;28;20041;-83
2021/08/25 02:55:46;;;;;;;0.43;0.43;;;13.00;76.60;;;;;;4990993;28;20034;-83
2021/08/25 02:58:13;;;;;;;0.90;0.70;;;13.00;76.70;;;;;;4990762;28;20039;-83
2021/08/25 03:00:39;;;;;;;0.68;0.50;;;13.00;76.80;;;;;;4975481;28;20081;-83
2021/08/25 03:03:04;;;;;;;0.43;0.43;;;12.90;76.80;;;;;;4991340;28;20026;-82
2021/08/25 03:05:30;;;;;;;0.70;0.50;;;12.90;77.00;;;;;;4993497;28;20479;-83
2021/08/25 03:07:56;;;;;;;0.77;0.57;;;13.00;77.10;;;;;;5006885;28;20038;-82
2021/08/25 03:10:22;;;;;;;0.40;0.40;;;12.80;77.10;;;;;;4991743;28;20026;-83
2021/08/25 03:12:48;;;;;;;0.77;0.50;;;12.80;77.20;;;;;;4992803;28;20073;-82
2021/08/25 03:15:14;;;;;;;0.50;0.40;;;12.80;77.20;;;;;;4991167;28;20034;-83
2021/08/25 03:17:39;;;;;;;0.75;0.47;;;12.80;77.30;;;;;;5006898;28;20033;-83
2021/08/25 03:20:08;;;;;;;0.82;0.57;;;12.80;77.40;;;;;;4991176;28;20030;-83
2021/08/25 03:22:34;;;;;;;0.70;0.40;;;12.70;77.40;;;;;;4990718;28;20038;-83
2021/08/25 03:25:01;;;;;;;1.13;0.70;;;12.70;77.40;;;;;;4990509;28;20085;-83
2021/08/25 03:27:27;;;;;;;0.55;0.52;;;12.60;77.40;;;;;;4989695;28;20093;-82
2021/08/25 03:29:52;;;;;;;0.55;0.47;;;12.60;77.50;;;;;;4993268;28;20042;-83
2021/08/25 03:32:18;;;;;;;0.68;0.50;;;12.60;77.60;;;;;;5006559;28;20097;-83
2021/08/25 03:34:44;;;;;;;0.55;0.50;;;12.60;77.60;;;;;;4992821;28;20042;-83
2021/08/25 03:37:10;;;;;;;0.98;0.52;;;12.60;77.70;;;;;;5005412;28;20089;-82
2021/08/25 03:39:37;;;;;;;0.70;0.52;;;12.60;77.80;;;;;;4993185;28;20065;-83
2021/08/25 03:42:03;;;;;;;1.25;0.68;;;12.60;77.90;;;;;;4990133;28;20038;-83
2021/08/25 03:44:28;;;;;;;0.55;0.32;;;12.50;77.90;;;;;;4987498;28;20031;-83
2021/08/25 03:46:54;;;;;;;0.50;0.47;;;12.50;77.80;;;;;;4990946;28;20034;-83
2021/08/25 03:49:20;;;;;;;0.45;0.45;;;12.60;78.00;;;;;;4992061;28;20045;-83
2021/08/25 03:51:46;;;;;;;0.60;0.40;;;12.50;78.00;;;;;;4992733;28;20394;-83
2021/08/25 03:54:12;;;;;;;0.50;0.50;;;12.50;78.00;;;;;;4992836;28;20439;-83
2021/08/25 03:56:37;;;;;;;0.50;0.50;;;12.50;78.10;;;;;;5005905;28;20410;-83
2021/08/25 03:59:04;;;;;;;0.40;0.40;;;12.40;78.10;;;;;;4974341;28;20029;-83
2021/08/25 04:01:30;;;;;;;0.98;0.63;;;12.40;78.20;;;;;;5006627;28;20039;-83
2021/08/25 04:03:56;;;;;;;0.70;0.57;;;12.40;78.20;;;;;;4989612;28;20100;-82
2021/08/25 04:06:22;;;;;;;0.60;0.50;;;12.40;78.20;;;;;;4988930;28;20070;-83
2021/08/25 04:08:47;;;;;;;0.50;0.43;;;12.40;78.30;;;;;;4990562;28;20043;-83
2021/08/25 04:11:20;;;;;;;0.73;0.52;;;12.40;78.40;;;;;;4989811;28;20039;-83
2021/08/25 04:13:46;;;;;;;0.70;0.65;;;12.40;78.50;;;;;;4990229;28;20058;-83
2021/08/25 04:16:12;;;;;;;0.73;0.60;;;12.30;78.50;;;;;;4989868;28;20447;-83
2021/08/25 04:18:38;;;;;;;0.40;0.30;;;12.20;78.50;;;;;;4992116;28;20466;-83
2021/08/25 04:21:04;;;;;;;1.30;0.50;;;12.30;78.60;;;;;;4990370;28;20045;-83
2021/08/25 04:23:30;;;;;;;0.70;0.47;;;12.30;78.60;;;;;;4989725;28;20069;-83
2021/08/25 04:25:55;;;;;;;0.73;0.50;;;12.20;78.60;;;;;;4975768;28;20084;-83
2021/08/25 04:28:21;;;;;;;0.70;0.50;;;12.20;78.70;;;;;;4995159;28;20041;-83
2021/08/25 04:30:47;;;;;;;1.25;0.70;;;12.20;78.70;;;;;;4993075;28;20036;-83
2021/08/25 04:33:13;;;;;;;0.40;0.40;;;12.20;78.80;;;;;;5008752;28;20050;-83
2021/08/25 04:35:39;;;;;;;0.90;0.60;;;12.20;78.80;;;;;;4994328;28;20125;-83
2021/08/25 04:38:05;;;;;;;1.05;0.52;;;12.20;78.90;;;;;;4993534;28;20041;-83
2021/08/25 04:40:30;;;;;;;0.75;0.50;;;12.20;78.90;;;;;;4993340;28;20031;-83
2021/08/25 04:42:57;;;;;;;0.50;0.50;;;12.10;78.90;;;;;;4992103;28;20546;-83
2021/08/25 04:45:23;;;;;;;0.40;0.40;;;12.20;78.90;;;;;;4993402;28;20403;-83
2021/08/25 04:47:48;;;;;;;0.40;0.40;;;12.10;79.00;;;;;;5009036;28;20088;-83
2021/08/25 04:50:14;;;;;;;0.68;0.47;;;12.10;79.00;;;;;;4992205;28;20030;-83
2021/08/25 04:52:40;;;;;;;0.52;0.50;;;12.10;79.00;;;;;;4977158;28;20046;-83
2021/08/25 04:55:06;;;;;;;0.47;0.40;;;12.10;79.00;;;;;;4993043;28;20076;-83
2021/08/25 04:57:32;;;;;;;0.50;0.40;;;12.10;79.00;;;;;;4992247;28;20463;-83
2021/08/25 04:59:58;;;;;;;0.55;0.50;;;12.10;79.10;;;;;;4992354;28;20076;-83
2021/08/25 05:02:23;;;;;;;0.82;0.60;;;12.10;79.10;;;;;;5009986;28;20038;-83
2021/08/25 05:04:49;;;;;;;1.13;0.52;;;12.10;79.10;;;;;;4992787;28;20034;-83
2021/08/25 05:07:15;;;;;;;0.90;0.50;;;12.10;79.10;;;;;;4975847;28;20169;-83
2021/08/25 05:09:41;;;;;;;0.77;0.60;;;12.10;79.10;;;;;;4993449;28;20038;-83
2021/08/25 05:12:07;;;;;;;1.15;0.60;;;12.10;79.10;;;;;;4992657;28;20614;-83
2021/08/25 05:14:34;;;;;;;0.60;0.50;;;12.20;79.10;;;;;;4992475;28;20070;-83
2021/08/25 05:17:01;;;;;;;0.88;0.52;;;12.20;79.10;;;;;;4995047;28;20030;-83
2021/08/25 05:19:27;;;;;;;0.80;0.52;;;12.20;79.20;;;;;;4994748;28;20031;-83
2021/08/25 05:21:53;;;;;;;0.98;0.70;;;12.20;79.10;;;;;;4992648;28;20092;-83
2021/08/25 05:24:20;;;;;;;1.02;0.60;;;12.20;79.10;;;;;;4992210;28;20037;-83
2021/08/25 05:26:47;;;;;;;0.90;0.60;;;12.20;79.10;;;;;;4994540;28;20060;-83
2021/08/25 05:29:13;;;;;;;0.40;0.40;;;12.20;79.10;;;;;;4993378;28;20045;-83
2021/08/25 05:31:39;;;;;;;0.40;0.40;;;12.30;79.10;;;;;;4992445;28;20125;-83
2021/08/25 05:34:04;;;;;;;0.88;0.65;;;12.30;79.10;;;;;;4994373;28;20050;-83
2021/08/25 05:36:30;;;;;;;1.50;0.50;;;12.30;79.10;;;;;;4990736;28;20039;-83
2021/08/25 05:38:56;;;;;;;1.00;0.68;;;12.30;79.10;;;;;;4993090;28;20039;-83
2021/08/25 05:41:22;;;;;;;0.55;0.45;;;12.30;79.10;;;;;;4991970;28;20110;-83
2021/08/25 05:43:47;;;;;;;1.05;0.70;;;12.40;79.20;;;;;;4991424;28;20043;-83
2021/08/25 05:46:13;;;;;;;0.60;0.40;;;12.40;79.10;;;;;;4994395;28;20104;-83
2021/08/25 05:48:39;;;;;;;0.88;0.50;;;12.40;79.10;;;;;;5008391;28;20043;-83
2021/08/25 05:51:04;;;;;;;0.57;0.43;;;12.50;79.20;;;;;;5007753;28;20176;-83
2021/08/25 05:53:30;;;;;;;0.95;0.60;;;12.50;79.10;;;;;;4992696;28;20061;-83
2021/08/25 05:55:56;;;;;;;0.82;0.50;;;12.60;79.10;;;;;;4992191;28;20405;-83
2021/08/25 05:58:22;;;;;;;1.15;0.60;;;12.50;79.10;;;;;;4991224;28;20037;-83
2021/08/25 06:00:47;;;;;;;0.68;0.57;;;12.60;79.10;;;;;;4994414;28;20474;-84
2021/08/25 06:03:13;;;;;;;1.05;0.60;;;12.60;79.00;;;;;;4994075;28;20042;-83
2021/08/25 06:05:39;;;;;;;0.80;0.63;;;12.70;79.10;;;;;;4991576;28;20037;-83
2021/08/25 06:08:05;;;;;;;0.60;0.60;;;12.70;79.70;;;;;;4974762;28;21259;-83
2021/08/25 06:10:31;;;;;;;0.47;0.47;;;12.70;79.00;;;;;;4992967;28;20038;-83
2021/08/25 06:12:57;;;;;;;0.50;0.50;;;12.80;79.10;;;;;;4991711;28;20129;-82
2021/08/25 06:15:23;;;;;;;0.93;0.52;;;12.90;79.10;;;;;;4990869;28;20069;-83
2021/08/25 06:17:49;;;;;;;0.40;0.38;;;12.90;79.00;;;;;;4992224;28;20038;-83
2021/08/25 06:20:14;;;;;;;0.98;0.38;;;13.00;79.00;;;;;;4991645;28;20034;-83
2021/08/25 06:22:41;;;;;;;0.40;0.40;;;13.00;78.90;;;;;;4991132;28;20038;-83
2021/08/25 06:25:07;;;;;;;1.05;0.60;;;13.10;79.00;;;;;;5006837;28;20038;-83
2021/08/25 06:27:33;;;;;;;0.65;0.55;;;13.10;79.60;;;;;;4992188;28;20050;-83
2021/08/25 06:29:59;;;;;;;0.30;0.30;;;13.20;78.90;;;;;;4992295;28;20039;-83
2021/08/25 06:32:24;;;;;;;0.65;0.47;;;13.30;78.90;;;;;;4975888;28;20410;-82
2021/08/25 06:34:50;;;;;;;0.95;0.52;;;13.40;78.90;;;;;;4993435;28;20041;-83
2021/08/25 06:37:16;;;;;;;1.00;0.50;;;13.40;78.80;;;;;;4993632;28;20512;-83
2021/08/25 06:39:42;;;;;;;0.50;0.50;;;13.50;78.60;;;;;;4976061;28;20442;-82
2021/08/25 06:42:08;;;;;;;0.50;0.50;;;13.60;78.40;;;;;;4992256;28;20537;-83
2021/08/25 06:44:34;;;;;;;0.88;0.65;;;13.70;78.40;;;;;;4992084;28;20042;-82
2021/08/25 06:46:59;;;;;;;0.52;0.43;;;13.70;78.30;;;;;;4990468;28;20058;-83
2021/08/25 06:49:25;;;;;;;0.77;0.47;;;13.80;78.20;;;;;;4990928;28;20039;-83
2021/08/25 06:51:51;;;;;;;0.77;0.60;;;13.90;78.30;;;;;;4992212;28;20415;-82
2021/08/25 06:54:17;;;;;;;0.60;0.60;;;13.90;78.20;;;;;;4990736;28;20077;-82
2021/08/25 06:56:43;;;;;;;0.85;0.55;;;14.20;78.20;;;;;;4990516;28;20478;-83
2021/08/25 06:59:08;;;;;;;0.88;0.60;;;14.20;77.90;;;;;;4992230;28;20459;-82
2021/08/25 07:01:34;;;;;;;0.50;0.40;;;14.20;77.60;;;;;;4991476;28;20049;-82
2021/08/25 07:04:00;;;;;;;0.50;0.43;;;14.30;77.50;;;;;;4991259;28;20042;-83
2021/08/25 07:06:26;;;;;;;0.60;0.50;;;14.40;78.20;;;;;;4990436;28;20050;-82
2021/08/25 07:08:52;;;;;;;0.75;0.60;;;14.50;77.60;;;;;;4979846;28;20034;-82
2021/08/25 07:11:17;;;;;;;0.70;0.60;;;14.50;77.60;;;;;;5001742;28;20089;-82
2021/08/25 07:13:43;;;;;;;0.85;0.80;;;14.60;77.50;;;;;;4998243;28;20043;-82
2021/08/25 07:16:10;;;;;;;0.80;0.60;;;14.60;77.50;;;;;;5000925;28;20042;-82
2021/08/25 07:18:37;;;;;;;2.05;0.95;;;14.70;77.40;;;;;;4977415;28;20113;-82
2021/08/25 07:21:04;;;;;;;1.02;0.80;;;14.90;77.40;;;;;;4991017;28;20509;-82
2021/08/25 07:23:30;;;;;;;0.80;0.65;;;14.90;77.30;;;;;;4992809;28;20034;-82
2021/08/25 07:25:57;;;;;;;0.63;0.40;;;15.00;77.10;;;;;;4993910;28;20045;-83
2021/08/25 07:28:22;;;;;;;0.47;0.40;;;15.10;77.00;;;;;;4991074;28;20035;-82
2021/08/25 07:30:48;;;;;;;0.73;0.55;;;15.10;76.90;;;;;;4990671;28;20375;-83
2021/08/25 07:33:15;;;;;;;0.82;0.60;;;15.20;76.90;;;;;;4992924;28;20090;-82
2021/08/25 07:35:46;;;;;;;0.57;0.57;;;15.20;76.90;;;;;;4991490;28;20030;-82
2021/08/25 07:38:13;;;;;;;0.95;0.60;;;15.20;76.90;;;;;;4989769;28;20035;-82
2021/08/25 07:40:38;;;;;;;0.52;0.40;;;15.40;77.00;;;;;;4992816;28;20037;-82
2021/08/25 07:43:04;;;;;;;0.70;0.60;;;15.40;76.80;;;;;;4990503;28;20042;-82
2021/08/25 07:45:32;;;;;;;0.75;0.57;;;15.50;76.70;;;;;;4989616;28;20065;-82
2021/08/25 07:47:58;;;;;;;0.50;0.50;;;15.60;76.50;;;;;;4989386;28;20494;-82
2021/08/25 07:50:24;;;;;;;1.02;0.60;;;15.70;76.50;;;;;;5007016;28;20104;-82
2021/08/25 07:52:49;;;;;;;0.50;0.50;;;15.70;76.40;;;;;;4989966;28;20487;-82
2021/08/25 07:55:15;;;;;;;0.63;0.50;;;15.80;76.20;;;;;;4989951;28;20047;-82
2021/08/25 07:57:41;;;;;;;1.38;0.80;;;15.90;76.20;;;;;;4991104;28;20097;-82
2021/08/25 08:00:07;;;;;;;0.82;0.68;;;15.90;76.20;;;;;;4993589;28;20066;-82
2021/08/25 08:02:35;;;;;;;1.13;1.02;;;16.10;76.20;;;;;;4993084;28;20070;-82
2021/08/25 08:05:01;;;;;;;1.27;0.90;;;16.20;76.00;;;;;;4995532;28;20030;-82
2021/08/25 08:07:27;;;;;;;0.90;0.60;;;16.30;75.70;;;;;;4994319;28;20495;-82
2021/08/25 08:09:53;;;;;;;0.60;0.57;;;16.50;75.50;;;;;;4995792;28;20039;-83
2021/08/25 08:12:19;;;;;;;0.63;0.50;;;16.70;75.30;;;;;;4993101;28;20092;-82
2021/08/25 08:14:45;;;;;;;1.73;0.82;;;16.80;75.10;;;;;;5010669;28;20038;-82
2021/08/25 08:17:10;;;;;;;1.35;0.60;;;16.90;75.00;;;;;;5011283;28;20534;-82
2021/08/25 08:19:36;;;;;;;0.93;0.65;;;17.20;74.80;;;;;;5010692;28;20034;-82
2021/08/25 08:22:03;;;;;;;0.95;0.68;;;17.40;74.30;;;;;;5010400;28;20026;-82
2021/08/25 08:24:29;;;;;;;0.70;0.47;;;17.70;74.20;;;;;;4978137;28;20053;-81
2021/08/25 08:26:55;;;;;;;0.50;0.50;;;17.80;73.90;;;;;;4995112;28;20478;-82
2021/08/25 08:29:21;;;;;;;0.55;0.50;;;18.00;73.60;;;;;;5009490;28;20126;-82
2021/08/25 08:31:47;;;;;;;0.30;0.30;;;18.20;73.40;;;;;;5010242;28;20073;-82
2021/08/25 08:34:13;;;;;;;0.52;0.50;;;18.40;73.00;;;;;;4993524;28;20038;-82
2021/08/25 08:36:38;;;;;;;0.75;0.50;;;18.70;72.70;;;;;;5009310;28;20035;-82
2021/08/25 08:39:05;;;;;;;0.60;0.50;;;18.80;72.40;;;;;;4992348;28;20049;-82
2021/08/25 08:41:31;;;;;;;0.50;0.50;;;19.00;72.10;;;;;;4995243;28;20062;-82
2021/08/25 08:43:57;;;;;;;0.82;0.60;;;19.20;71.90;;;;;;4993495;28;20034;-82
2021/08/25 08:46:24;;;;;;;0.60;0.50;;;19.30;71.90;;;;;;4995373;28;20517;-82
2021/08/25 08:48:51;;;;;;;0.98;0.68;;;19.40;71.80;;;;;;4992218;28;20041;-81
2021/08/25 08:51:21;;;;;;;0.60;0.60;;;19.40;71.70;;;;;;5010171;28;20042;-81
2021/08/25 08:53:48;;;;;;;0.50;0.50;;;19.60;71.70;;;;;;5009427;28;20491;-81
2021/08/25 08:56:14;;;;;;;1.20;0.88;;;19.70;71.50;;;;;;4992378;28;20121;-82
2021/08/25 08:58:41;;;;;;;1.27;0.68;;;19.80;71.50;;;;;;4992182;28;20463;-81
2021/08/25 09:01:08;;;;;;;0.70;0.50;;;19.90;71.60;;;;;;4993464;28;20054;-82
2021/08/25 09:03:36;;;;;;;0.57;0.50;;;20.10;71.60;;;;;;4993462;28;20039;-82
2021/08/25 09:06:03;;;;;;;1.27;0.70;;;20.10;71.50;;;;;;4992787;28;20069;-82
2021/08/25 09:08:31;;;;;;;0.95;0.60;;;20.20;71.50;;;;;;4976222;28;20034;-81
2021/08/25 09:11:12;;;;;;;0.38;0.38;;;20.30;71.20;;;;;;4994129;28;20112;-82
2021/08/25 09:13:46;;;;;;;;;;;20.40;71.00;;;;;;5008494;28;20054;-80
2021/08/25 09:16:27;;;;;;;0.60;0.52;;;20.50;71.10;;;;;;4976333;28;19910;-80
2021/08/25 09:19:13;;;;;;;0.70;0.60;;;20.60;70.80;;;;;;4993340;28;20039;-80
2021/08/25 09:21:42;;;;;;;1.45;0.80;;;20.60;70.80;;;;;;5007537;28;20098;-80
2021/08/25 09:24:10;;;;;;;0.85;0.60;;;20.60;70.60;;;;;;4994627;28;20038;-81
2021/08/25 09:26:57;;;;;;;0.65;0.60;;;20.70;70.80;;;;;;4944908;28;20073;-81
2021/08/25 09:29:23;;;;;;;1.08;0.68;;;20.50;70.80;;;;;;5008364;28;20047;-81
2021/08/25 09:31:50;;;;;;;0.82;0.70;;;20.60;71.10;;;;;;4991651;28;20037;-80
2021/08/25 09:34:28;;;;;;;1.27;0.75;;;20.60;70.90;;;;;;4994193;28;20042;-79
2021/08/25 09:37:11;;;;;;;1.10;0.90;;;20.70;70.50;;;;;;4992933;28;20401;-79
2021/08/25 09:39:52;;;;;;;0.85;0.60;;;20.90;70.20;;;;;;5009313;28;20505;-80
2021/08/25 09:42:20;;;;;;;0.98;0.82;;;20.90;69.80;;;;;;5008990;28;20035;-79
2021/08/25 09:44:58;;;;;;;1.23;0.90;;;20.90;69.80;;;;;;4993884;28;20032;-81
2021/08/25 09:47:47;;;;;;;1.83;1.00;;;20.90;70.00;;;;;;4992639;28;20034;-81
2021/08/25 09:50:16;;;;;;;1.73;0.88;;;21.00;69.70;;;;;;4994377;28;20039;-80
2021/08/25 09:52:44;;;;;;;0.57;0.55;;;21.00;69.70;;;;;;4992736;28;20096;-80
2021/08/25 09:55:10;;;;;;;1.02;0.90;;;20.90;69.80;;;;;;4994495;28;20034;-79
2021/08/25 09:57:40;;;;;;;0.98;0.80;;;20.90;69.60;;;;;;4992439;28;20032;-81
2021/08/25 10:00:07;;;;;;;1.30;1.02;;;21.00;69.30;;;;;;4991964;28;20214;-80
2021/08/25 10:02:34;;;;;;;0.70;0.70;;;21.00;69.30;;;;;;4993531;28;20604;-80
2021/08/25 10:05:00;;;;;;;1.58;1.02;;;21.10;69.30;;;;;;4990593;28;20041;-79
2021/08/25 10:07:26;;;;;;;1.60;0.85;;;21.00;69.10;;;;;;4992222;28;20477;-80
2021/08/25 10:09:53;;;;;;;1.02;0.90;;;21.00;68.80;;;;;;4992053;28;20027;-81
2021/08/25 10:12:19;;;;;;;1.17;0.88;;;21.00;68.80;;;;;;4991146;28;20497;-81
2021/08/25 10:14:45;;;;;;;0.95;0.70;;;21.00;68.90;;;;;;5006929;28;20042;-81
2021/08/25 10:17:42;;;;;;;1.58;0.85;;;21.10;68.90;;;;;;5008622;28;20137;-80
2021/08/25 10:20:34;;;;;;;1.00;0.70;;;21.10;68.50;;;;;;5008527;28;20039;-80
2021/08/25 10:23:01;;;;;;;0.82;0.63;;;21.10;68.20;;;;;;4987279;28;20041;-80
2021/08/25 10:25:28;;;;;;;0.70;0.70;;;21.20;68.10;;;;;;4991719;28;20034;-80
2021/08/25 10:28:06;;;;;;;0.70;0.60;;;21.20;68.10;;;;;;4991289;28;20061;-80
2021/08/25 10:30:54;;;;;;;1.67;0.95;;;21.20;68.10;;;;;;4992603;28;20049;-81
2021/08/25 10:33:20;;;;;;;0.75;0.63;;;21.10;67.80;;;;;;4990684;28;20050;-80
2021/08/25 10:35:47;;;;;;;1.00;0.70;;;21.20;67.90;;;;;;5006477;28;20042;-80
2021/08/25 10:38:26;;;;;;;1.27;0.75;;;21.10;67.80;;;;;;4991518;28;20375;-80
2021/08/25 10:41:00;;;;;;;0.77;0.68;;;21.10;67.70;;;;;;4990376;28;20034;-80
2021/08/25 10:43:36;;;;;;;0.93;0.68;;;21.20;67.70;;;;;;4991985;28;20043;-80
2021/08/25 10:46:03;;;;;;;0.88;0.73;;;21.20;67.60;;;;;;5006210;28;20510;-79
2021/08/25 10:48:43;;;;;;;0.88;0.73;;;21.10;67.50;;;;;;4991638;28;20181;-81
2021/08/25 10:51:35;;;;;;;1.10;0.80;;;21.20;67.20;;;;;;4990663;28;20064;-80
2021/08/25 10:54:03;;;;;;;0.70;0.52;;;21.20;67.10;;;;;;5007931;28;20482;-80
2021/08/25 10:56:34;;;;;;;0.60;0.50;;;21.20;67.20;;;;;;4991415;28;20034;-81
2021/08/25 10:59:03;;;;;;;0.68;0.60;;;21.20;67.10;;;;;;4992917;28;20038;-79
2021/08/25 11:01:39;;;;;;;1.45;0.88;;;21.20;66.90;;;;;;4991032;28;20046;-79
2021/08/25 11:04:22;;;;;;;1.65;1.00;;;21.30;66.70;;;;;;4992995;28;20045;-80
2021/08/25 11:06:52;;;;;;;3.10;1.00;;;21.40;66.40;;;;;;4992715;28;20026;-79
2021/08/25 11:09:21;;;;;;;1.00;0.75;;;21.30;66.20;;;;;;4993154;28;20038;-80
2021/08/25 11:12:02;;;;;;;0.77;0.70;;;21.30;66.20;;;;;;4991311;28;20100;-81
2021/08/25 11:14:31;;;;;;;0.70;0.60;;;21.30;66.20;;;;;;4992619;28;20038;-81
2021/08/25 11:17:05;;;;;;;2.38;1.40;;;21.30;66.00;;;;;;5006889;28;20038;-80
2021/08/25 11:19:36;;;;;;;2.05;1.00;;;21.30;65.90;;;;;;4974818;28;20505;-80
2021/08/25 11:22:02;;;;;;;1.38;1.00;;;21.30;65.80;;;;;;5006838;28;20121;-80
2021/08/25 11:24:33;;;;;;;1.67;1.10;;;21.40;65.90;;;;;;4990435;28;20050;-80
2021/08/25 11:26:59;;;;;;;2.58;1.15;;;21.50;65.70;;;;;;4992653;28;20038;-79
2021/08/25 11:29:25;;;;;;;1.40;0.80;;;21.70;65.40;;;;;;4990307;28;20478;-80
2021/08/25 11:31:51;;;;;;;1.65;1.10;;;21.70;65.30;;;;;;4989018;28;20069;-81
2021/08/25 11:34:21;;;;;;;1.83;1.05;;;21.60;65.10;;;;;;4992764;28;20039;-79
2021/08/25 11:36:56;;;;;;;1.48;1.05;;;21.70;65.10;;;;;;4994206;28;20042;-80
2021/08/25 11:39:22;;;;;;;0.98;0.70;;;21.60;65.20;;;;;;5009419;28;20070;-81
2021/08/25 11:41:50;;;;;;;1.30;0.73;;;21.40;65.60;;;;;;5010775;28;20494;-79
2021/08/25 11:44:36;;;;;;;1.60;0.88;;;21.30;66.10;;;;;;4995852;28;20046;-81
2021/08/25 11:47:12;;;;;;;1.85;1.02;;;21.40;66.10;;;;;;4993825;28;20129;-80
2021/08/25 11:49:39;;;;;;;1.08;0.88;;;21.60;66.10;;;;;;4995823;28;20482;-80
2021/08/25 11:52:06;;;;;;;1.40;0.95;;;21.60;65.80;;;;;;4994008;28;20038;-80
2021/08/25 11:54:32;;;;;;;1.13;0.82;;;21.70;65.60;;;;;;4993975;28;20038;-79
2021/08/25 11:56:58;;;;;;;1.20;0.90;;;21.80;65.30;;;;;;5009480;28;20035;-81
2021/08/25 11:59:24;;;;;;;0.90;0.70;;;21.90;65.10;;;;;;4994526;28;20066;-81
2021/08/25 12:01:49;;;;;;;1.05;0.88;;;22.10;65.00;;;;;;4995858;28;20496;-79
2021/08/25 12:04:28;;;;;;;1.15;0.85;;;22.10;64.90;;;;;;4992780;28;20513;-79
2021/08/25 12:06:55;;;;;;;1.88;1.20;;;22.10;64.70;;;;;;4993420;28;20047;-79
2021/08/25 12:09:32;;;;;;;0.90;0.80;;;22.10;64.80;;;;;;4993384;28;20043;-79
2021/08/25 12:11:58;;;;;;;1.73;1.10;;;22.00;64.90;;;;;;4993798;28;20042;-79
2021/08/25 12:14:24;;;;;;;0.80;0.80;;;21.90;65.10;;;;;;4993487;28;20072;-79
2021/08/25 12:17:06;;;;;;;1.75;1.23;;;21.90;65.30;;;;;;5010259;28;20549;-79
2021/08/25 12:19:34;;;;;;;1.23;1.08;;;21.90;65.20;;;;;;4993098;28;20129;-79
2021/08/25 12:22:22;;;;;;;2.28;1.05;;;21.80;65.20;;;;;;5009077;28;20041;-79
2021/08/25 12:24:48;;;;;;;1.75;1.20;;;21.80;65.30;;;;;;4995312;28;20030;-78
2021/08/25 12:27:14;;;;;;;1.50;0.98;;;21.80;65.10;;;;;;4992809;28;20115;-79
2021/08/25 12:29:43;;;;;;;1.80;0.90;;;21.80;65.10;;;;;;4993530;28;20474;-78
2021/08/25 12:32:11;;;;;;;1.30;0.93;;;21.80;65.10;;;;;;4993528;28;20034;-79
2021/08/25 12:35:00;;;;;;;1.08;0.80;;;21.80;64.90;;;;;;5009382;28;20054;-78
2021/08/25 12:37:49;;;;;;;1.75;0.90;;;21.80;64.80;;;;;;5009978;28;20038;-79
2021/08/25 12:40:16;;;;;;;1.20;0.85;;;21.80;64.80;;;;;;4995274;28;20041;-79
2021/08/25 12:42:42;;;;;;;1.38;1.02;;;21.80;64.90;;;;;;4995244;28;20084;-79
2021/08/25 12:45:10;;;;;;;1.30;1.00;;;21.80;64.90;;;;;;4993834;28;20076;-79
2021/08/25 12:47:35;;;;;;;1.42;0.90;;;21.80;64.80;;;;;;4993397;28;20065;-80
2021/08/25 12:50:01;;;;;;;1.52;0.90;;;21.80;64.90;;;;;;5008696;28;20030;-79
2021/08/25 12:52:27;;;;;;;1.55;1.10;;;21.90;64.80;;;;;;4993868;28;20129;-80